sensor_id;sensor_type;location;lat;lon;timestamp;pressure;altitude;pressure_sealevel;temperature;humidity
34073;BME280;20346;52.702;16.886;2023-04-09T00:02:18;101860.54;;;6.47;67.33
34073;BME280;20346;52.702;16.886;2023-04-09T00:05:13;101860.02;;;6.47;67.38
34073;BME280;20346;52.702;16.886;2023-04-09T00:08:16;101860.88;;;6.47;67.39
34073;BME280;20346;52.702;16.886;2023-04-09T00:11:46;101855.39;;;6.47;67.38
34073;BME280;20346;52.702;16.886;2023-04-09T00:14:23;101854.35;;;6.46;67.42
34073;BME280;20346;52.702;16.886;2023-04-09T00:16:59;101852.98;;;6.46;67.45
34073;BME280;20346;52.702;16.886;2023-04-09T00:20:25;101851.93;;;6.44;67.39
34073;BME280;20346;52.702;16.886;2023-04-09T00:23:04;101854.83;;;6.44;67.52
34073;BME280;20346;52.702;16.886;2023-04-09T00:25:47;101856.89;;;6.44;67.54
34073;BME280;20346;52.702;16.886;2023-04-09T00:28:47;101858.95;;;6.45;67.58
34073;BME280;20346;52.702;16.886;2023-04-09T00:31:27;101855.05;;;6.47;67.62
34073;BME280;20346;52.702;16.886;2023-04-09T00:34:29;101851.15;;;6.48;67.63
34073;BME280;20346;52.702;16.886;2023-04-09T00:37:56;101851.69;;;6.49;67.62
34073;BME280;20346;52.702;16.886;2023-04-09T00:40:37;101851.86;;;6.49;67.66
34073;BME280;20346;52.702;16.886;2023-04-09T00:44:03;101851.70;;;6.50;67.74
34073;BME280;20346;52.702;16.886;2023-04-09T00:46:39;101850.86;;;6.51;67.78
34073;BME280;20346;52.702;16.886;2023-04-09T00:49:12;101849.55;;;6.54;67.79
34073;BME280;20346;52.702;16.886;2023-04-09T00:51:46;101847.50;;;6.54;67.76
34073;BME280;20346;52.702;16.886;2023-04-09T00:55:14;101847.52;;;6.55;67.81
34073;BME280;20346;52.702;16.886;2023-04-09T00:57:49;101849.55;;;6.54;67.87
34073;BME280;20346;52.702;16.886;2023-04-09T01:00:23;101852.99;;;6.55;67.87
34073;BME280;20346;52.702;16.886;2023-04-09T01:03:19;101852.35;;;6.57;67.91
34073;BME280;20346;52.702;16.886;2023-04-09T01:06:02;101851.51;;;6.57;67.90
34073;BME280;20346;52.702;16.886;2023-04-09T01:11:31;101849.52;;;6.60;68.00
34073;BME280;20346;52.702;16.886;2023-04-09T01:16:37;101850.75;;;6.62;68.04
34073;BME280;20346;52.702;16.886;2023-04-09T01:30:49;101852.83;;;6.72;68.14
34073;BME280;20346;52.702;16.886;2023-04-09T01:33:25;101851.61;;;6.71;68.14
34073;BME280;20346;52.702;16.886;2023-04-09T01:36:00;101852.63;;;6.71;68.21
34073;BME280;20346;52.702;16.886;2023-04-09T01:38:34;101853.65;;;6.70;68.22
34073;BME280;20346;52.702;16.886;2023-04-09T01:41:08;101855.39;;;6.71;68.20
34073;BME280;20346;52.702;16.886;2023-04-09T01:43:41;101856.95;;;6.73;68.26
34073;BME280;20346;52.702;16.886;2023-04-09T01:46:25;101858.81;;;6.72;68.24
34073;BME280;20346;52.702;16.886;2023-04-09T01:48:58;101860.20;;;6.73;68.28
34073;BME280;20346;52.702;16.886;2023-04-09T01:51:56;101857.68;;;6.75;68.33
34073;BME280;20346;52.702;16.886;2023-04-09T01:54:31;101859.57;;;6.76;68.36
34073;BME280;20346;52.702;16.886;2023-04-09T01:57:15;101861.98;;;6.75;68.26
34073;BME280;20346;52.702;16.886;2023-04-09T01:59:49;101857.00;;;6.76;68.35
34073;BME280;20346;52.702;16.886;2023-04-09T02:02:25;101863.19;;;6.78;68.33
34073;BME280;20346;52.702;16.886;2023-04-09T02:04:56;101864.56;;;6.78;68.39
34073;BME280;20346;52.702;16.886;2023-04-09T02:07:32;101864.55;;;6.77;68.34
34073;BME280;20346;52.702;16.886;2023-04-09T02:10:04;101865.92;;;6.78;68.43
34073;BME280;20346;52.702;16.886;2023-04-09T02:12:47;101862.68;;;6.78;68.43
34073;BME280;20346;52.702;16.886;2023-04-09T02:15:23;101863.71;;;6.78;68.43
34073;BME280;20346;52.702;16.886;2023-04-09T02:18:19;101858.91;;;6.78;68.44
34073;BME280;20346;52.702;16.886;2023-04-09T02:21:33;101855.48;;;6.77;68.52
34073;BME280;20346;52.702;16.886;2023-04-09T02:24:30;101858.21;;;6.77;68.51
34073;BME280;20346;52.702;16.886;2023-04-09T02:27:56;101861.12;;;6.76;68.48
34073;BME280;20346;52.702;16.886;2023-04-09T02:31:26;101864.72;;;6.76;68.54
34073;BME280;20346;52.702;16.886;2023-04-09T02:34:52;101864.16;;;6.73;68.45
34073;BME280;20346;52.702;16.886;2023-04-09T02:37:32;101865.83;;;6.70;68.58
34073;BME280;20346;52.702;16.886;2023-04-09T02:40:26;101863.92;;;6.70;68.60
34073;BME280;20346;52.702;16.886;2023-04-09T02:43:01;101862.20;;;6.70;68.55
34073;BME280;20346;52.702;16.886;2023-04-09T02:45:35;101861.00;;;6.69;68.57
34073;BME280;20346;52.702;16.886;2023-04-09T02:48:20;101859.44;;;6.69;68.59
34073;BME280;20346;52.702;16.886;2023-04-09T02:50:54;101855.98;;;6.67;68.66
34073;BME280;20346;52.702;16.886;2023-04-09T02:53:27;101854.44;;;6.67;68.66
34073;BME280;20346;52.702;16.886;2023-04-09T02:56:01;101852.19;;;6.66;68.66
34073;BME280;20346;52.702;16.886;2023-04-09T02:58:34;101851.85;;;6.66;68.73
34073;BME280;20346;52.702;16.886;2023-04-09T03:01:09;101847.48;;;6.62;68.68
34073;BME280;20346;52.702;16.886;2023-04-09T03:04:35;101848.16;;;6.61;68.79
34073;BME280;20346;52.702;16.886;2023-04-09T03:07:12;101844.56;;;6.61;68.81
34073;BME280;20346;52.702;16.886;2023-04-09T03:09:45;101845.55;;;6.59;68.77
34073;BME280;20346;52.702;16.886;2023-04-09T03:12:19;101841.56;;;6.57;68.84
34073;BME280;20346;52.702;16.886;2023-04-09T03:14:58;101843.80;;;6.57;68.87
34073;BME280;20346;52.702;16.886;2023-04-09T03:17:32;101840.19;;;6.57;68.86
34073;BME280;20346;52.702;16.886;2023-04-09T03:20:06;101843.59;;;6.56;68.82
34073;BME280;20346;52.702;16.886;2023-04-09T03:22:50;101838.92;;;6.53;68.92
34073;BME280;20346;52.702;16.886;2023-04-09T03:25:25;101836.52;;;6.53;68.94
34073;BME280;20346;52.702;16.886;2023-04-09T03:28:00;101832.56;;;6.52;68.96
34073;BME280;20346;52.702;16.886;2023-04-09T03:30:40;101829.31;;;6.53;68.98
34073;BME280;20346;52.702;16.886;2023-04-09T03:33:14;101827.73;;;6.51;68.98
34073;BME280;20346;52.702;16.886;2023-04-09T03:35:47;101827.70;;;6.50;69.01
34073;BME280;20346;52.702;16.886;2023-04-09T03:38:22;101827.87;;;6.49;69.02
34073;BME280;20346;52.702;16.886;2023-04-09T03:40:57;101825.80;;;6.48;69.06
34073;BME280;20346;52.702;16.886;2023-04-09T03:43:31;101828.21;;;6.49;69.11
34073;BME280;20346;52.702;16.886;2023-04-09T03:46:11;101826.69;;;6.50;69.13
34073;BME280;20346;52.702;16.886;2023-04-09T03:48:49;101826.17;;;6.50;69.11
34073;BME280;20346;52.702;16.886;2023-04-09T03:51:22;101828.39;;;6.49;69.13
34073;BME280;20346;52.702;16.886;2023-04-09T03:53:56;101829.88;;;6.47;69.13
34073;BME280;20346;52.702;16.886;2023-04-09T03:56:29;101832.41;;;6.45;69.15
34073;BME280;20346;52.702;16.886;2023-04-09T03:59:03;101827.09;;;6.44;69.18
34073;BME280;20346;52.702;16.886;2023-04-09T04:01:38;101827.93;;;6.44;69.19
34073;BME280;20346;52.702;16.886;2023-04-09T04:04:13;101830.33;;;6.44;69.25
34073;BME280;20346;52.702;16.886;2023-04-09T04:07:39;101835.77;;;6.42;69.21
34073;BME280;20346;52.702;16.886;2023-04-09T04:10:16;101837.32;;;6.42;69.24
34073;BME280;20346;52.702;16.886;2023-04-09T04:12:59;101838.16;;;6.42;69.30
34073;BME280;20346;52.702;16.886;2023-04-09T04:15:40;101835.21;;;6.40;69.30
34073;BME280;20346;52.702;16.886;2023-04-09T04:18:14;101842.91;;;6.39;69.37
34073;BME280;20346;52.702;16.886;2023-04-09T04:20:47;101844.11;;;6.39;69.34
34073;BME280;20346;52.702;16.886;2023-04-09T04:23:21;101841.38;;;6.40;69.43
34073;BME280;20346;52.702;16.886;2023-04-09T04:25:55;101838.69;;;6.42;69.38
34073;BME280;20346;52.702;16.886;2023-04-09T04:28:28;101837.34;;;6.43;69.38
34073;BME280;20346;52.702;16.886;2023-04-09T04:31:07;101833.42;;;6.44;69.41
34073;BME280;20346;52.702;16.886;2023-04-09T04:33:37;101835.98;;;6.44;69.49
34073;BME280;20346;52.702;16.886;2023-04-09T04:36:12;101837.36;;;6.44;69.45
34073;BME280;20346;52.702;16.886;2023-04-09T04:38:46;101833.27;;;6.45;69.43
34073;BME280;20346;52.702;16.886;2023-04-09T04:41:29;101835.63;;;6.44;69.51
34073;BME280;20346;52.702;16.886;2023-04-09T04:44:02;101838.69;;;6.42;69.57
34073;BME280;20346;52.702;16.886;2023-04-09T04:46:36;101838.52;;;6.43;69.54
34073;BME280;20346;52.702;16.886;2023-04-09T04:49:09;101840.61;;;6.44;69.58
34073;BME280;20346;52.702;16.886;2023-04-09T04:51:43;101839.06;;;6.44;69.70
34073;BME280;20346;52.702;16.886;2023-04-09T04:54:17;101844.21;;;6.44;69.69
34073;BME280;20346;52.702;16.886;2023-04-09T04:57:01;101846.30;;;6.46;69.77
34073;BME280;20346;52.702;16.886;2023-04-09T04:59:38;101844.64;;;6.49;69.82
34073;BME280;20346;52.702;16.886;2023-04-09T05:02:11;101846.94;;;6.52;69.91
34073;BME280;20346;52.702;16.886;2023-04-09T05:04:46;101848.74;;;6.56;69.89
34073;BME280;20346;52.702;16.886;2023-04-09T05:07:21;101852.42;;;6.60;69.83
34073;BME280;20346;52.702;16.886;2023-04-09T05:09:54;101854.50;;;6.61;69.88
34073;BME280;20346;52.702;16.886;2023-04-09T05:12:30;101854.20;;;6.63;69.72
34073;BME280;20346;52.702;16.886;2023-04-09T05:15:22;101857.50;;;6.66;69.65
34073;BME280;20346;52.702;16.886;2023-04-09T05:18:02;101855.97;;;6.66;69.70
34073;BME280;20346;52.702;16.886;2023-04-09T05:20:45;101858.38;;;6.67;69.87
34073;BME280;20346;52.702;16.886;2023-04-09T05:23:19;101860.09;;;6.67;69.78
34073;BME280;20346;52.702;16.886;2023-04-09T05:25:53;101863.52;;;6.67;69.88
34073;BME280;20346;52.702;16.886;2023-04-09T05:28:26;101862.33;;;6.67;69.96
34073;BME280;20346;52.702;16.886;2023-04-09T05:31:00;101863.84;;;6.66;69.94
34073;BME280;20346;52.702;16.886;2023-04-09T05:33:33;101865.86;;;6.64;69.98
34073;BME280;20346;52.702;16.886;2023-04-09T05:36:13;101865.27;;;6.61;69.94
34073;BME280;20346;52.702;16.886;2023-04-09T05:38:44;101866.98;;;6.60;70.09
34073;BME280;20346;52.702;16.886;2023-04-09T05:41:17;101867.16;;;6.60;70.14
34073;BME280;20346;52.702;16.886;2023-04-09T05:43:50;101864.09;;;6.61;70.22
34073;BME280;20346;52.702;16.886;2023-04-09T05:46:24;101863.47;;;6.64;70.18
34073;BME280;20346;52.702;16.886;2023-04-09T05:48:59;101862.42;;;6.63;70.11
34073;BME280;20346;52.702;16.886;2023-04-09T05:51:35;101861.33;;;6.60;69.99
34073;BME280;20346;52.702;16.886;2023-04-09T05:54:09;101857.55;;;6.59;70.08
34073;BME280;20346;52.702;16.886;2023-04-09T05:56:42;101859.79;;;6.60;70.03
34073;BME280;20346;52.702;16.886;2023-04-09T05:59:16;101858.91;;;6.59;70.08
34073;BME280;20346;52.702;16.886;2023-04-09T06:02:11;101859.71;;;6.56;70.01
34073;BME280;20346;52.702;16.886;2023-04-09T06:04:55;101858.11;;;6.53;70.10
34073;BME280;20346;52.702;16.886;2023-04-09T06:07:28;101858.83;;;6.55;70.15
34073;BME280;20346;52.702;16.886;2023-04-09T06:10:02;101855.27;;;6.56;70.37
34073;BME280;20346;52.702;16.886;2023-04-09T06:12:37;101856.87;;;6.60;70.38
34073;BME280;20346;52.702;16.886;2023-04-09T06:15:10;101855.17;;;6.60;70.27
34073;BME280;20346;52.702;16.886;2023-04-09T06:17:45;101857.55;;;6.59;70.10
34073;BME280;20346;52.702;16.886;2023-04-09T06:20:19;101859.98;;;6.61;70.38
34073;BME280;20346;52.702;16.886;2023-04-09T06:22:59;101855.27;;;6.66;70.31
34073;BME280;20346;52.702;16.886;2023-04-09T06:25:32;101855.16;;;6.69;70.43
34073;BME280;20346;52.702;16.886;2023-04-09T06:28:06;101859.04;;;6.74;70.64
34073;BME280;20346;52.702;16.886;2023-04-09T06:30:39;101858.90;;;6.77;70.60
34073;BME280;20346;52.702;16.886;2023-04-09T06:33:13;101866.26;;;6.77;70.58
34073;BME280;20346;52.702;16.886;2023-04-09T06:35:46;101866.79;;;6.77;70.69
34073;BME280;20346;52.702;16.886;2023-04-09T06:38:19;101863.75;;;6.80;70.65
34073;BME280;20346;52.702;16.886;2023-04-09T06:40:54;101858.98;;;6.81;70.60
34073;BME280;20346;52.702;16.886;2023-04-09T06:43:26;101868.77;;;6.82;70.37
34073;BME280;20346;52.702;16.886;2023-04-09T06:46:00;101872.38;;;6.83;70.63
34073;BME280;20346;52.702;16.886;2023-04-09T06:48:33;101865.25;;;6.87;70.73
34073;BME280;20346;52.702;16.886;2023-04-09T06:51:07;101866.90;;;6.92;70.66
34073;BME280;20346;52.702;16.886;2023-04-09T06:53:40;101870.25;;;6.97;70.68
34073;BME280;20346;52.702;16.886;2023-04-09T06:56:14;101872.55;;;7.02;70.72
34073;BME280;20346;52.702;16.886;2023-04-09T06:58:47;101874.60;;;7.09;70.92
34073;BME280;20346;52.702;16.886;2023-04-09T07:01:21;101881.93;;;7.16;70.79
34073;BME280;20346;52.702;16.886;2023-04-09T07:03:55;101881.04;;;7.23;70.87
34073;BME280;20346;52.702;16.886;2023-04-09T07:06:28;101880.94;;;7.28;70.89
34073;BME280;20346;52.702;16.886;2023-04-09T07:09:03;101883.67;;;7.39;71.03
34073;BME280;20346;52.702;16.886;2023-04-09T07:11:46;101886.25;;;7.48;70.77
34073;BME280;20346;52.702;16.886;2023-04-09T07:14:19;101895.89;;;7.50;70.82
34073;BME280;20346;52.702;16.886;2023-04-09T07:16:53;101897.31;;;7.53;70.78
34073;BME280;20346;52.702;16.886;2023-04-09T07:19:28;101900.15;;;7.58;70.87
34073;BME280;20346;52.702;16.886;2023-04-09T07:22:01;101902.65;;;7.64;70.81
34073;BME280;20346;52.702;16.886;2023-04-09T07:24:34;101902.05;;;7.70;70.87
34073;BME280;20346;52.702;16.886;2023-04-09T07:27:08;101906.64;;;7.78;70.86
34073;BME280;20346;52.702;16.886;2023-04-09T07:29:45;101908.21;;;7.79;70.70
34073;BME280;20346;52.702;16.886;2023-04-09T07:32:18;101905.83;;;7.81;70.81
34073;BME280;20346;52.702;16.886;2023-04-09T07:34:52;101904.53;;;7.86;70.74
34073;BME280;20346;52.702;16.886;2023-04-09T07:37:25;101903.94;;;7.92;70.87
34073;BME280;20346;52.702;16.886;2023-04-09T07:39:59;101905.73;;;7.97;70.79
34073;BME280;20346;52.702;16.886;2023-04-09T07:42:32;101905.30;;;8.03;71.02
34073;BME280;20346;52.702;16.886;2023-04-09T07:45:06;101905.41;;;8.10;70.81
34073;BME280;20346;52.702;16.886;2023-04-09T07:47:40;101910.18;;;8.08;70.70
34073;BME280;20346;52.702;16.886;2023-04-09T07:50:20;101909.63;;;8.05;70.75
34073;BME280;20346;52.702;16.886;2023-04-09T07:53:03;101913.64;;;8.09;70.93
34073;BME280;20346;52.702;16.886;2023-04-09T07:55:44;101907.38;;;8.15;70.87
34073;BME280;20346;52.702;16.886;2023-04-09T07:58:24;101912.68;;;8.26;71.05
34073;BME280;20346;52.702;16.886;2023-04-09T08:01:04;101909.59;;;8.38;71.08
34073;BME280;20346;52.702;16.886;2023-04-09T08:03:47;101909.08;;;8.50;71.01
34073;BME280;20346;52.702;16.886;2023-04-09T08:06:27;101907.46;;;8.58;70.90
34073;BME280;20346;52.702;16.886;2023-04-09T08:09:07;101910.73;;;8.73;70.77
34073;BME280;20346;52.702;16.886;2023-04-09T08:11:49;101908.59;;;8.80;70.84
34073;BME280;20346;52.702;16.886;2023-04-09T08:14:39;101913.71;;;8.93;70.95
34073;BME280;20346;52.702;16.886;2023-04-09T08:17:19;101911.63;;;9.06;70.97
34073;BME280;20346;52.702;16.886;2023-04-09T08:20:03;101909.66;;;9.15;70.89
34073;BME280;20346;52.702;16.886;2023-04-09T08:22:42;101909.42;;;9.25;70.94
34073;BME280;20346;52.702;16.886;2023-04-09T08:25:22;101911.43;;;9.58;71.17
34073;BME280;20346;52.702;16.886;2023-04-09T08:28:03;101907.58;;;9.94;71.02
34073;BME280;20346;52.702;16.886;2023-04-09T08:30:43;101910.26;;;10.08;70.69
34073;BME280;20346;52.702;16.886;2023-04-09T08:33:26;101910.36;;;10.21;70.86
34073;BME280;20346;52.702;16.886;2023-04-09T08:36:09;101909.20;;;10.63;70.92
34073;BME280;20346;52.702;16.886;2023-04-09T08:38:50;101910.33;;;10.91;70.63
34073;BME280;20346;52.702;16.886;2023-04-09T08:41:30;101906.41;;;11.10;70.59
34073;BME280;20346;52.702;16.886;2023-04-09T08:44:11;101910.41;;;11.23;70.52
34073;BME280;20346;52.702;16.886;2023-04-09T08:46:51;101906.11;;;11.29;70.48
34073;BME280;20346;52.702;16.886;2023-04-09T08:49:31;101909.21;;;11.44;70.46
34073;BME280;20346;52.702;16.886;2023-04-09T08:52:11;101905.95;;;11.43;70.20
34073;BME280;20346;52.702;16.886;2023-04-09T08:54:54;101910.27;;;11.40;70.20
34073;BME280;20346;52.702;16.886;2023-04-09T08:57:38;101909.01;;;11.15;70.12
34073;BME280;20346;52.702;16.886;2023-04-09T09:00:17;101912.93;;;11.00;70.34
34073;BME280;20346;52.702;16.886;2023-04-09T09:03:07;101916.71;;;10.89;70.22
34073;BME280;20346;52.702;16.886;2023-04-09T09:05:47;101916.48;;;10.71;70.17
34073;BME280;20346;52.702;16.886;2023-04-09T09:08:27;101914.52;;;10.57;70.31
34073;BME280;20346;52.702;16.886;2023-04-09T09:11:07;101912.61;;;10.55;70.46
34073;BME280;20346;52.702;16.886;2023-04-09T09:13:55;101916.23;;;10.55;70.54
34073;BME280;20346;52.702;16.886;2023-04-09T09:16:27;101918.34;;;10.62;70.59
34073;BME280;20346;52.702;16.886;2023-04-09T09:19:08;101918.53;;;10.68;70.47
34073;BME280;20346;52.702;16.886;2023-04-09T09:22:03;101917.36;;;10.77;70.46
34073;BME280;20346;52.702;16.886;2023-04-09T09:24:49;101911.17;;;10.80;70.27
34073;BME280;20346;52.702;16.886;2023-04-09T09:27:32;101912.41;;;10.90;70.38
34073;BME280;20346;52.702;16.886;2023-04-09T09:30:19;101912.77;;;11.04;70.42
34073;BME280;20346;52.702;16.886;2023-04-09T09:33:09;101911.62;;;11.24;70.50
34073;BME280;20346;52.702;16.886;2023-04-09T09:35:50;101917.52;;;11.54;70.50
34073;BME280;20346;52.702;16.886;2023-04-09T09:38:29;101918.04;;;11.74;70.22
34073;BME280;20346;52.702;16.886;2023-04-09T09:41:15;101920.48;;;11.76;70.20
34073;BME280;20346;52.702;16.886;2023-04-09T09:43:55;101926.84;;;11.68;70.02
34073;BME280;20346;52.702;16.886;2023-04-09T09:46:39;101928.38;;;11.53;70.04
34073;BME280;20346;52.702;16.886;2023-04-09T09:49:18;101927.02;;;11.42;70.04
34073;BME280;20346;52.702;16.886;2023-04-09T09:51:59;101923.05;;;11.42;70.16
34073;BME280;20346;52.702;16.886;2023-04-09T09:54:39;101919.74;;;11.50;70.21
34073;BME280;20346;52.702;16.886;2023-04-09T09:57:21;101919.06;;;11.52;69.85
34073;BME280;20346;52.702;16.886;2023-04-09T10:00:01;101919.58;;;11.50;70.05
34073;BME280;20346;52.702;16.886;2023-04-09T10:02:51;101917.52;;;11.51;70.19
34073;BME280;20346;52.702;16.886;2023-04-09T10:05:29;101916.83;;;11.61;70.24
34073;BME280;20346;52.702;16.886;2023-04-09T10:08:09;101910.09;;;11.69;70.10
34073;BME280;20346;52.702;16.886;2023-04-09T10:10:50;101904.58;;;11.75;70.11
34073;BME280;20346;52.702;16.886;2023-04-09T10:16:12;101905.63;;;11.79;69.65
34073;BME280;20346;52.702;16.886;2023-04-09T10:18:55;101899.23;;;11.79;70.02
34073;BME280;20346;52.702;16.886;2023-04-09T10:24:12;101894.40;;;11.84;69.78
34073;BME280;20346;52.702;16.886;2023-04-09T10:26:53;101891.64;;;11.84;69.81
34073;BME280;20346;52.702;16.886;2023-04-09T10:29:32;101893.88;;;11.89;69.88
34073;BME280;20346;52.702;16.886;2023-04-09T10:32:19;101891.29;;;11.94;69.78
34073;BME280;20346;52.702;16.886;2023-04-09T10:34:56;101895.95;;;11.95;69.79
34073;BME280;20346;52.702;16.886;2023-04-09T10:37:37;101896.64;;;11.94;69.67
34073;BME280;20346;52.702;16.886;2023-04-09T10:40:19;101903.20;;;11.77;69.55
34073;BME280;20346;52.702;16.886;2023-04-09T10:42:59;101900.42;;;11.76;69.74
34073;BME280;20346;52.702;16.886;2023-04-09T10:45:40;101900.44;;;11.77;69.59
34073;BME280;20346;52.702;16.886;2023-04-09T10:48:19;101901.11;;;11.72;69.61
34073;BME280;20346;52.702;16.886;2023-04-09T10:51:01;101895.41;;;11.76;69.77
34073;BME280;20346;52.702;16.886;2023-04-09T10:53:39;101890.26;;;11.87;69.81
34073;BME280;20346;52.702;16.886;2023-04-09T10:56:19;101891.98;;;11.89;69.68
34073;BME280;20346;52.702;16.886;2023-04-09T10:58:59;101891.97;;;11.95;69.79
34073;BME280;20346;52.702;16.886;2023-04-09T11:01:39;101892.45;;;11.99;69.62
34073;BME280;20346;52.702;16.886;2023-04-09T11:04:19;101888.16;;;11.96;69.67
34073;BME280;20346;52.702;16.886;2023-04-09T11:06:59;101883.15;;;11.95;69.61
34073;BME280;20346;52.702;16.886;2023-04-09T11:09:41;101883.69;;;11.88;69.38
34073;BME280;20346;52.702;16.886;2023-04-09T11:12:23;101886.11;;;11.78;69.45
34073;BME280;20346;52.702;16.886;2023-04-09T11:15:03;101879.72;;;11.84;69.61
34073;BME280;20346;52.702;16.886;2023-04-09T11:17:44;101878.48;;;11.96;69.66
34073;BME280;20346;52.702;16.886;2023-04-09T11:20:26;101876.38;;;12.06;69.65
34073;BME280;20346;52.702;16.886;2023-04-09T11:23:06;101874.80;;;12.17;69.66
34073;BME280;20346;52.702;16.886;2023-04-09T11:25:47;101875.66;;;12.20;69.45
34073;BME280;20346;52.702;16.886;2023-04-09T11:28:26;101880.31;;;12.25;69.45
34073;BME280;20346;52.702;16.886;2023-04-09T11:31:06;101879.12;;;12.17;69.18
34073;BME280;20346;52.702;16.886;2023-04-09T11:33:46;101881.04;;;12.09;69.36
34073;BME280;20346;52.702;16.886;2023-04-09T11:36:26;101880.52;;;12.12;69.47
34073;BME280;20346;52.702;16.886;2023-04-09T11:39:07;101879.47;;;12.12;69.33
34073;BME280;20346;52.702;16.886;2023-04-09T11:41:47;101876.54;;;12.12;69.36
34073;BME280;20346;52.702;16.886;2023-04-09T11:44:27;101874.97;;;12.15;69.31
34073;BME280;20346;52.702;16.886;2023-04-09T11:47:09;101875.32;;;12.16;69.40
34073;BME280;20346;52.702;16.886;2023-04-09T11:49:48;101872.55;;;12.17;69.38
34073;BME280;20346;52.702;16.886;2023-04-09T11:52:28;101874.61;;;12.18;69.24
34073;BME280;20346;52.702;16.886;2023-04-09T11:55:08;101872.41;;;12.04;69.11
34073;BME280;20346;52.702;16.886;2023-04-09T11:57:49;101875.55;;;11.96;69.26
34073;BME280;20346;52.702;16.886;2023-04-09T12:00:28;101877.45;;;11.94;69.32
34073;BME280;20346;52.702;16.886;2023-04-09T12:03:08;101876.56;;;11.98;69.22
34073;BME280;20346;52.702;16.886;2023-04-09T12:05:48;101877.65;;;11.87;69.05
34073;BME280;20346;52.702;16.886;2023-04-09T12:08:28;101879.35;;;11.71;68.96
34073;BME280;20346;52.702;16.886;2023-04-09T12:11:13;101883.31;;;11.68;69.30
34073;BME280;20346;52.702;16.886;2023-04-09T12:13:57;101882.30;;;11.78;69.30
34073;BME280;20346;52.702;16.886;2023-04-09T12:16:33;101877.11;;;11.93;69.41
34073;BME280;20346;52.702;16.886;2023-04-09T12:19:13;101871.36;;;12.05;69.38
34073;BME280;20346;52.702;16.886;2023-04-09T12:21:54;101869.60;;;12.17;69.37
34073;BME280;20346;52.702;16.886;2023-04-09T12:24:33;101868.04;;;12.24;69.13
34073;BME280;20346;52.702;16.886;2023-04-09T12:27:13;101870.29;;;12.23;69.10
34073;BME280;20346;52.702;16.886;2023-04-09T12:29:53;101870.45;;;12.27;69.11
34073;BME280;20346;52.702;16.886;2023-04-09T12:32:35;101867.66;;;12.34;69.11
34073;BME280;20346;52.702;16.886;2023-04-09T12:35:15;101861.41;;;12.42;69.24
34073;BME280;20346;52.702;16.886;2023-04-09T12:37:58;101858.73;;;12.56;69.38
34073;BME280;20346;52.702;16.886;2023-04-09T12:40:40;101857.30;;;12.67;69.04
34073;BME280;20346;52.702;16.886;2023-04-09T12:43:19;101861.64;;;12.66;69.01
34073;BME280;20346;52.702;16.886;2023-04-09T12:45:59;101864.42;;;12.61;69.01
34073;BME280;20346;52.702;16.886;2023-04-09T12:48:41;101861.79;;;12.69;69.18
34073;BME280;20346;52.702;16.886;2023-04-09T12:51:20;101858.81;;;12.74;69.01
34073;BME280;20346;52.702;16.886;2023-04-09T12:54:00;101857.29;;;12.70;68.88
34073;BME280;20346;52.702;16.886;2023-04-09T12:56:40;101855.42;;;12.64;68.87
34073;BME280;20346;52.702;16.886;2023-04-09T12:59:20;101852.48;;;12.63;68.99
34073;BME280;20346;52.702;16.886;2023-04-09T13:02:00;101845.55;;;12.64;69.11
34073;BME280;20346;52.702;16.886;2023-04-09T13:04:42;101847.44;;;12.69;69.00
34073;BME280;20346;52.702;16.886;2023-04-09T13:07:23;101845.52;;;12.70;68.93
34073;BME280;20346;52.702;16.886;2023-04-09T13:10:05;101846.55;;;12.72;69.00
34073;BME280;20346;52.702;16.886;2023-04-09T13:12:45;101844.13;;;12.71;69.05
34073;BME280;20346;52.702;16.886;2023-04-09T13:15:25;101845.16;;;12.73;69.03
34073;BME280;20346;52.702;16.886;2023-04-09T13:18:05;101846.00;;;12.77;69.05
34073;BME280;20346;52.702;16.886;2023-04-09T13:20:45;101843.92;;;12.80;69.11
34073;BME280;20346;52.702;16.886;2023-04-09T13:23:27;101844.98;;;12.76;68.93
34073;BME280;20346;52.702;16.886;2023-04-09T13:26:08;101848.96;;;12.74;69.01
34073;BME280;20346;52.702;16.886;2023-04-09T13:28:49;101844.99;;;12.72;68.93
34073;BME280;20346;52.702;16.886;2023-04-09T13:31:32;101845.68;;;12.72;69.06
34073;BME280;20346;52.702;16.886;2023-04-09T13:34:11;101843.63;;;12.68;68.94
34073;BME280;20346;52.702;16.886;2023-04-09T13:36:54;101846.59;;;12.64;68.94
34073;BME280;20346;52.702;16.886;2023-04-09T13:39:34;101845.56;;;12.62;69.00
34073;BME280;20346;52.702;16.886;2023-04-09T13:42:16;101842.13;;;12.55;69.02
34073;BME280;20346;52.702;16.886;2023-04-09T13:44:55;101847.33;;;12.53;69.02
34073;BME280;20346;52.702;16.886;2023-04-09T13:47:39;101846.83;;;12.50;69.05
34073;BME280;20346;52.702;16.886;2023-04-09T13:50:18;101846.51;;;12.47;68.94
34073;BME280;20346;52.702;16.886;2023-04-09T13:52:58;101844.81;;;12.43;68.96
34073;BME280;20346;52.702;16.886;2023-04-09T13:55:38;101846.72;;;12.41;69.02
34073;BME280;20346;52.702;16.886;2023-04-09T13:58:18;101847.09;;;12.35;68.97
34073;BME280;20346;52.702;16.886;2023-04-09T14:00:59;101845.54;;;12.32;68.92
34073;BME280;20346;52.702;16.886;2023-04-09T14:03:39;101846.59;;;12.30;68.96
34073;BME280;20346;52.702;16.886;2023-04-09T14:06:18;101842.09;;;12.30;69.05
34073;BME280;20346;52.702;16.886;2023-04-09T14:08:59;101838.80;;;12.33;69.24
34073;BME280;20346;52.702;16.886;2023-04-09T14:11:39;101837.74;;;12.35;68.95
34073;BME280;20346;52.702;16.886;2023-04-09T14:14:19;101836.04;;;12.30;68.91
34073;BME280;20346;52.702;16.886;2023-04-09T14:17:00;101834.50;;;12.24;68.88